Time;durP1;ratioP1;P1;durP2;ratioP2;P2;SDS_P1;SDS_P2;PMS_P1;PMS_P2;Temp;Humidity;BMP_temperature;BMP_pressure;BME280_temperature;BME280_humidity;BME280_pressure;Samples;Min_cycle;Max_cycle;Signal;HPM_P1;HPM_P2
2024/03/19 00:00:40;;;;;;;;;;;5.10;99.90;;;;;;5033762;28;19913;-60
2024/03/19 00:03:06;;;;;;;;;;;5.20;99.90;;;;;;5033649;28;19917;-60
2024/03/19 00:05:31;;;;;;;;;;;5.20;99.90;;;;;;5033688;28;20623;-59
2024/03/19 00:07:57;;;;;;;;;;;5.20;99.90;;;;;;5033242;28;19999;-60
2024/03/19 00:10:23;;;;;;;;;;;5.20;99.90;;;;;;5033031;28;19948;-59
2024/03/19 00:12:48;;;;;;;;;;;5.20;99.90;;;;;;5033163;28;19913;-59
2024/03/19 00:15:13;;;;;;;;;;;5.20;99.90;;;;;;5032498;28;19935;-60
2024/03/19 00:17:39;;;;;;;;;;;5.10;99.90;;;;;;5042838;28;19924;-60
2024/03/19 00:20:14;;;;;;;;;;;5.10;99.90;;;;;;5032287;28;19909;-59
2024/03/19 00:22:39;;;;;;;;;;;5.10;99.90;;;;;;5041776;28;19904;-61
2024/03/19 00:25:08;;;;;;;;;;;5.20;99.90;;;;;;5049728;28;20364;-58
2024/03/19 00:27:34;;;;;;;;;;;5.20;99.90;;;;;;5033022;28;19920;-59
2024/03/19 00:30:00;;;;;;;;;;;5.20;99.90;;;;;;5033806;28;19909;-61
2024/03/19 00:32:28;;;;;;;;;;;5.30;99.90;;;;;;5048390;28;19956;-57
2024/03/19 00:34:54;;;;;;;;;;;5.30;99.90;;;;;;5033407;28;19913;-59
2024/03/19 00:37:19;;;;;;;;;;;5.20;99.90;;;;;;5033088;28;20292;-60
2024/03/19 00:39:45;;;;;;;;;;;5.20;99.90;;;;;;5040659;28;19913;-59
2024/03/19 00:42:10;;;;;;;;;;;5.20;99.90;;;;;;5034903;28;20015;-59
2024/03/19 00:44:35;;;;;;;;;;;5.30;99.90;;;;;;5037805;28;19924;-59
2024/03/19 00:47:01;;;;;;;;;;;5.30;99.90;;;;;;5040577;28;20291;-59
2024/03/19 00:49:26;;;;;;;;;;;5.30;99.90;;;;;;5022558;28;19978;-58
2024/03/19 00:51:52;;;;;;;;;;;5.30;99.90;;;;;;5032396;28;19917;-57
2024/03/19 00:54:18;;;;;;;;;;;5.30;99.90;;;;;;5032539;28;19909;-59
2024/03/19 00:56:43;;;;;;;;;;;5.30;99.90;;;;;;5032643;28;19909;-59
2024/03/19 00:59:09;;;;;;;;;;;5.20;99.90;;;;;;5032148;28;19920;-59
2024/03/19 01:01:35;;;;;;;;;;;5.30;99.90;;;;;;5032504;28;19909;-58
2024/03/19 01:04:07;;;;;;;;;;;5.20;99.90;;;;;;5040789;28;20388;-58
2024/03/19 01:06:33;;;;;;;;;;;5.30;99.90;;;;;;5046581;28;19951;-60
2024/03/19 01:08:58;;;;;;;;;;;5.20;99.90;;;;;;5032674;28;19953;-59
2024/03/19 01:11:24;;;;;;;;;;;5.10;99.90;;;;;;5039604;28;20409;-59
2024/03/19 01:13:49;;;;;;;;;;;5.10;99.90;;;;;;5040691;28;19909;-59
2024/03/19 01:16:15;;;;;;;;;;;5.10;99.90;;;;;;5034119;28;19923;-57
2024/03/19 01:18:40;;;;;;;;;;;5.20;99.90;;;;;;5043175;28;20284;-60
2024/03/19 01:21:06;;;;;;;;;;;5.20;99.90;;;;;;5042184;28;19920;-58
2024/03/19 01:23:31;;;;;;;;;;;5.10;99.90;;;;;;5032123;28;19912;-58
2024/03/19 01:25:57;;;;;;;;;;;5.10;99.90;;;;;;5032596;28;20373;-58
2024/03/19 01:28:22;;;;;;;;;;;5.20;99.90;;;;;;5047264;28;19916;-59
2024/03/19 01:30:48;;;;;;;;;;;5.10;99.90;;;;;;5039570;28;20022;-59
2024/03/19 01:33:14;;;;;;;;;;;5.20;99.90;;;;;;5040886;28;20309;-61
2024/03/19 01:35:40;;;;;;;;;;;5.10;99.90;;;;;;5032356;28;19994;-61
2024/03/19 01:38:06;;;;;;;;;;;5.10;99.90;;;;;;5039102;28;19964;-59
2024/03/19 01:40:31;;;;;;;;;;;5.10;99.90;;;;;;5031731;28;19913;-59
2024/03/19 01:42:57;;;;;;;;;;;5.20;99.90;;;;;;5039741;28;19928;-60
2024/03/19 01:45:23;;;;;;;;;;;5.10;99.90;;;;;;5030820;28;19924;-60
2024/03/19 01:47:50;;;;;;;;;;;5.20;99.90;;;;;;5031358;28;19920;-60
2024/03/19 01:50:15;;;;;;;;;;;5.20;99.90;;;;;;5030728;28;20012;-60
2024/03/19 01:52:45;;;;;;;;;;;5.10;99.90;;;;;;5031642;28;19971;-61
2024/03/19 01:55:11;;;;;;;;;;;5.00;99.90;;;;;;5034046;28;19910;-60
2024/03/19 01:57:36;;;;;;;;;;;5.10;99.90;;;;;;5043164;28;20335;-61
2024/03/19 02:00:04;;;;;;;;;;;5.00;99.90;;;;;;5033603;28;19912;-61
2024/03/19 02:02:34;;;;;;;;;;;5.00;99.90;;;;;;5040333;28;19909;-60
2024/03/19 02:05:00;;;;;;;;;;;5.00;99.90;;;;;;5040784;28;20373;-60
2024/03/19 02:07:25;;;;;;;;;;;5.10;99.90;;;;;;5051261;28;20028;-61
2024/03/19 02:09:51;;;;;;;;;;;5.00;99.90;;;;;;5043276;28;20000;-58
2024/03/19 02:12:19;;;;;;;;;;;5.10;99.90;;;;;;5039401;28;19905;-60
2024/03/19 02:14:45;;;;;;;;;;;5.00;99.90;;;;;;5038091;28;19947;-60
2024/03/19 02:17:11;;;;;;;;;;;5.00;99.90;;;;;;5039966;28;19956;-59
2024/03/19 02:19:38;;;;;;;;;;;5.00;99.90;;;;;;5036839;28;19959;-59
2024/03/19 02:22:03;;;;;;;;;;;5.00;99.90;;;;;;5033063;28;19967;-60
2024/03/19 02:24:29;;;;;;;;;;;5.00;99.90;;;;;;5030756;28;19913;-60
2024/03/19 02:26:54;;;;;;;;;;;4.90;99.90;;;;;;5031062;28;20380;-59
2024/03/19 02:29:20;;;;;;;;;;;4.90;99.90;;;;;;5038297;28;19927;-58
2024/03/19 02:31:45;;;;;;;;;;;4.80;99.90;;;;;;5037909;28;19920;-60
2024/03/19 02:34:11;;;;;;;;;;;4.80;99.90;;;;;;5031653;28;19913;-60
2024/03/19 02:36:36;;;;;;;;;;;4.80;99.90;;;;;;5030538;28;19917;-60
2024/03/19 02:39:02;;;;;;;;;;;4.80;99.90;;;;;;5046134;28;19999;-59
2024/03/19 02:41:28;;;;;;;;;;;4.80;99.90;;;;;;5038640;28;19917;-58
2024/03/19 02:43:53;;;;;;;;;;;4.80;99.90;;;;;;5030431;28;19975;-58
2024/03/19 02:46:18;;;;;;;;;;;4.80;99.90;;;;;;5029966;28;19916;-60
2024/03/19 02:48:44;;;;;;;;;;;4.70;99.90;;;;;;5044626;28;19909;-57
2024/03/19 02:51:09;;;;;;;;;;;4.60;99.90;;;;;;5033619;28;19967;-59
2024/03/19 02:53:35;;;;;;;;;;;4.60;99.90;;;;;;5041937;28;19913;-60
2024/03/19 02:56:00;;;;;;;;;;;4.70;99.90;;;;;;5042079;28;19979;-60
2024/03/19 02:58:26;;;;;;;;;;;4.70;99.90;;;;;;5036899;28;20296;-60
2024/03/19 03:00:55;;;;;;;;;;;4.70;99.90;;;;;;5030186;28;19909;-60
2024/03/19 03:03:20;;;;;;;;;;;4.60;99.90;;;;;;5030257;28;19909;-60
2024/03/19 03:05:46;;;;;;;;;;;4.60;99.90;;;;;;5030305;28;20365;-59
2024/03/19 03:08:11;;;;;;;;;;;4.60;99.90;;;;;;5011405;28;19916;-58
2024/03/19 03:10:37;;;;;;;;;;;4.60;99.90;;;;;;5030008;28;19971;-60
2024/03/19 03:13:03;;;;;;;;;;;4.60;99.90;;;;;;5030282;28;20309;-60
2024/03/19 03:15:28;;;;;;;;;;;4.50;99.90;;;;;;5030155;28;19952;-60
2024/03/19 03:17:55;;;;;;;;;;;4.50;99.90;;;;;;5038193;28;20372;-59
2024/03/19 03:20:20;;;;;;;;;;;4.60;99.90;;;;;;5037622;28;20426;-60
2024/03/19 03:22:46;;;;;;;;;;;4.50;99.90;;;;;;5036836;28;20069;-60
2024/03/19 03:25:11;;;;;;;;;;;4.60;99.90;;;;;;5039255;28;19909;-60
2024/03/19 03:27:40;;;;;;;;;;;4.50;99.90;;;;;;5030957;28;19940;-61
2024/03/19 03:30:08;;;;;;;;;;;4.50;99.90;;;;;;5049858;28;19917;-61
2024/03/19 03:32:34;;;;;;;;;;;4.40;99.90;;;;;;5038925;28;20053;-59
2024/03/19 03:35:00;;;;;;;;;;;4.40;99.90;;;;;;5044647;28;19909;-59
2024/03/19 03:37:25;;;;;;;;;;;4.40;99.90;;;;;;5033373;28;19924;-61
2024/03/19 03:39:51;;;;;;;;;;;4.40;99.90;;;;;;5033619;28;19913;-58
2024/03/19 03:42:17;;;;;;;;;;;4.40;99.90;;;;;;5049967;28;20032;-58
2024/03/19 03:44:43;;;;;;;;;;;4.40;99.90;;;;;;5048135;28;19924;-60
2024/03/19 03:47:08;;;;;;;;;;;4.40;99.90;;;;;;5035296;28;19909;-59
2024/03/19 03:49:34;;;;;;;;;;;4.30;99.90;;;;;;5038279;28;19909;-61
2024/03/19 03:51:59;;;;;;;;;;;4.30;99.90;;;;;;5044781;28;19919;-60
2024/03/19 03:54:25;;;;;;;;;;;4.30;99.90;;;;;;5033282;28;19913;-60
2024/03/19 03:56:50;;;;;;;;;;;4.30;99.90;;;;;;5041480;28;19913;-58
2024/03/19 03:59:16;;;;;;;;;;;4.30;99.90;;;;;;5040733;28;19917;-60
2024/03/19 04:01:41;;;;;;;;;;;4.30;99.90;;;;;;5015222;28;19959;-61
2024/03/19 04:04:06;;;;;;;;;;;4.30;99.90;;;;;;5032793;28;19935;-60
2024/03/19 04:06:32;;;;;;;;;;;4.20;99.90;;;;;;5032946;28;19920;-59
2024/03/19 04:08:57;;;;;;;;;;;4.30;99.90;;;;;;5032345;28;19913;-60
2024/03/19 04:11:23;;;;;;;;;;;4.30;99.90;;;;;;5032697;28;19917;-59
2024/03/19 04:13:48;;;;;;;;;;;4.20;99.90;;;;;;5033137;28;19937;-59
2024/03/19 04:16:14;;;;;;;;;;;4.20;99.90;;;;;;5032657;28;19944;-60
2024/03/19 04:18:39;;;;;;;;;;;4.30;99.90;;;;;;5014424;28;19916;-61
2024/03/19 04:21:05;;;;;;;;;;;4.30;99.90;;;;;;5032749;28;20345;-58
2024/03/19 04:23:31;;;;;;;;;;;4.40;99.90;;;;;;5032917;28;19913;-61
2024/03/19 04:25:56;;;;;;;;;;;4.40;99.90;;;;;;5032438;28;19959;-58
2024/03/19 04:28:22;;;;;;;;;;;4.30;99.90;;;;;;5032013;28;19999;-61
2024/03/19 04:30:47;;;;;;;;;;;4.30;99.90;;;;;;5032444;28;19971;-60
2024/03/19 04:33:13;;;;;;;;;;;4.20;99.90;;;;;;5032450;28;20006;-59
2024/03/19 04:35:38;;;;;;;;;;;4.20;99.90;;;;;;5032534;28;20079;-61
2024/03/19 04:38:04;;;;;;;;;;;4.20;99.90;;;;;;5031693;28;19909;-60
2024/03/19 04:40:30;;;;;;;;;;;4.20;99.90;;;;;;5032668;28;19905;-60
2024/03/19 04:42:56;;;;;;;;;;;4.20;99.90;;;;;;5032529;28;19915;-58
2024/03/19 04:45:21;;;;;;;;;;;4.20;99.90;;;;;;5032051;28;19935;-60
2024/03/19 04:47:47;;;;;;;;;;;4.20;99.90;;;;;;5032419;28;19917;-58
2024/03/19 04:50:13;;;;;;;;;;;4.30;99.90;;;;;;5031821;28;20349;-59
2024/03/19 04:52:38;;;;;;;;;;;4.30;99.90;;;;;;5032369;28;19909;-60
2024/03/19 04:55:04;;;;;;;;;;;4.30;99.90;;;;;;5031837;28;19905;-59
2024/03/19 04:57:30;;;;;;;;;;;4.40;99.90;;;;;;5040173;28;19951;-59
2024/03/19 04:59:55;;;;;;;;;;;4.30;99.90;;;;;;5039415;28;20365;-59
2024/03/19 05:02:21;;;;;;;;;;;4.40;99.90;;;;;;5039835;28;19912;-60
2024/03/19 05:04:46;;;;;;;;;;;4.40;99.90;;;;;;5038568;28;19970;-60
2024/03/19 05:07:12;;;;;;;;;;;4.50;99.90;;;;;;5043298;28;19919;-60
2024/03/19 05:09:38;;;;;;;;;;;4.40;99.90;;;;;;5046074;28;19909;-61
2024/03/19 05:12:04;;;;;;;;;;;4.40;99.90;;;;;;5032886;28;20344;-60
2024/03/19 05:14:32;;;;;;;;;;;4.40;99.90;;;;;;5051724;28;20372;-61
2024/03/19 05:16:58;;;;;;;;;;;4.30;99.90;;;;;;5034908;28;20265;-60
2024/03/19 05:19:23;;;;;;;;;;;4.30;99.90;;;;;;5031405;28;19940;-61
2024/03/19 05:21:48;;;;;;;;;;;4.40;99.90;;;;;;5031496;28;19935;-58
2024/03/19 05:24:14;;;;;;;;;;;4.40;99.90;;;;;;5047603;28;19909;-60
2024/03/19 05:26:39;;;;;;;;;;;4.50;99.90;;;;;;5045500;28;19912;-61
2024/03/19 05:29:05;;;;;;;;;;;4.50;99.90;;;;;;5041255;28;20437;-60
2024/03/19 05:31:30;;;;;;;;;;;4.40;99.90;;;;;;5035675;28;19913;-59
2024/03/19 05:33:57;;;;;;;;;;;4.50;99.90;;;;;;5043354;28;19918;-61
2024/03/19 05:36:23;;;;;;;;;;;4.50;99.90;;;;;;5039525;28;19913;-60
2024/03/19 05:38:48;;;;;;;;;;;4.60;99.90;;;;;;5030636;28;20712;-59
2024/03/19 05:41:15;;;;;;;;;;;4.60;99.90;;;;;;5033644;28;19909;-60
2024/03/19 05:43:44;;;;;;;;;;;4.60;99.90;;;;;;5036255;28;20273;-61
2024/03/19 05:46:09;;;;;;;;;;;4.70;99.90;;;;;;5029228;28;20015;-59
2024/03/19 05:48:37;;;;;;;;;;;4.70;99.90;;;;;;5037753;28;20039;-61
2024/03/19 05:51:06;;;;;;;;;;;4.70;99.90;;;;;;5029335;28;19952;-59
2024/03/19 05:53:33;;;;;;;;;;;4.80;99.90;;;;;;5030072;28;20083;-60
2024/03/19 05:56:01;;;;;;;;;;;4.70;99.90;;;;;;5038361;28;20000;-59
2024/03/19 05:58:26;;;;;;;;;;;4.70;99.90;;;;;;5036918;28;19921;-59
2024/03/19 06:00:52;;;;;;;;;;;4.70;99.90;;;;;;5029937;28;19928;-59
2024/03/19 06:03:17;;;;;;;;;;;4.70;99.90;;;;;;5029808;28;19916;-61
2024/03/19 06:05:43;;;;;;;;;;;4.70;99.90;;;;;;5029715;28;19908;-60
2024/03/19 06:08:08;;;;;;;;;;;4.70;99.90;;;;;;5029203;28;19984;-62
2024/03/19 06:10:34;;;;;;;;;;;4.80;99.90;;;;;;5029977;28;19921;-61
2024/03/19 06:12:59;;;;;;;;;;;4.80;99.90;;;;;;5029772;28;19904;-61
2024/03/19 06:15:26;;;;;;;;;;;4.80;99.90;;;;;;5029502;28;20010;-61
2024/03/19 06:17:52;;;;;;;;;;;4.80;99.90;;;;;;5029578;28;19910;-60
2024/03/19 06:20:18;;;;;;;;;;;4.90;99.90;;;;;;5029137;28;20408;-60
2024/03/19 06:22:44;;;;;;;;;;;4.80;99.90;;;;;;5029609;28;19913;-61
2024/03/19 06:25:09;;;;;;;;;;;4.80;99.90;;;;;;5029484;28;20459;-61
2024/03/19 06:27:35;;;;;;;;;;;4.90;99.90;;;;;;5029441;28;19913;-61
2024/03/19 06:30:00;;;;;;;;;;;4.80;99.90;;;;;;5028717;28;19932;-61
2024/03/19 06:32:26;;;;;;;;;;;4.80;99.90;;;;;;5029456;28;19927;-61
2024/03/19 06:34:53;;;;;;;;;;;4.90;99.90;;;;;;5029505;28;19915;-60
2024/03/19 06:37:19;;;;;;;;;;;4.90;99.90;;;;;;5032016;28;19920;-61
2024/03/19 06:39:44;;;;;;;;;;;5.00;99.90;;;;;;5040457;28;19913;-61
2024/03/19 06:42:10;;;;;;;;;;;4.90;99.90;;;;;;5049158;28;19947;-61
2024/03/19 06:44:35;;;;;;;;;;;5.00;99.90;;;;;;5035481;28;19941;-60
2024/03/19 06:47:01;;;;;;;;;;;5.00;99.90;;;;;;5037080;28;20345;-61
2024/03/19 06:49:27;;;;;;;;;;;5.10;99.90;;;;;;5036836;28;19979;-59
2024/03/19 06:51:52;;;;;;;;;;;5.20;99.90;;;;;;5044797;28;20124;-60
2024/03/19 06:54:18;;;;;;;;;;;5.20;99.90;;;;;;5037793;28;19924;-61
2024/03/19 06:56:43;;;;;;;;;;;5.30;99.90;;;;;;5028985;28;19909;-61
2024/03/19 06:59:10;;;;;;;;;;;5.40;99.90;;;;;;5036711;28;20376;-59
2024/03/19 07:01:36;;;;;;;;;;;5.50;99.90;;;;;;5043374;28;20350;-61
2024/03/19 07:04:02;;;;;;;;;;;5.50;99.90;;;;;;5044236;28;20260;-61
2024/03/19 07:06:29;;;;;;;;;;;5.60;99.90;;;;;;5033050;28;20115;-61
2024/03/19 07:08:55;;;;;;;;;;;5.60;99.90;;;;;;5040254;28;19995;-60
2024/03/19 07:11:20;;;;;;;;;;;5.70;99.90;;;;;;5044462;28;20011;-60
2024/03/19 07:13:46;;;;;;;;;;;5.70;99.90;;;;;;5046557;28;19916;-60
2024/03/19 07:16:11;;;;;;;;;;;5.80;99.90;;;;;;5042691;28;20215;-60
2024/03/19 07:18:37;;;;;;;;;;;5.80;99.90;;;;;;5043548;28;19923;-61
2024/03/19 07:21:02;;;;;;;;;;;5.70;99.90;;;;;;5035540;28;19912;-61
2024/03/19 07:23:27;;;;;;;;;;;5.80;99.90;;;;;;5036967;28;20185;-61
2024/03/19 07:25:55;;;;;;;;;;;5.80;99.90;;;;;;5052632;28;20007;-61
2024/03/19 07:28:20;;;;;;;;;;;5.80;99.90;;;;;;5035391;28;19919;-61
2024/03/19 07:30:46;;;;;;;;;;;6.00;99.90;;;;;;5044326;28;20011;-61
2024/03/19 07:33:11;;;;;;;;;;;6.10;99.90;;;;;;5034260;28;19967;-61
2024/03/19 07:35:37;;;;;;;;;;;6.30;99.90;;;;;;5035278;28;20385;-61
2024/03/19 07:38:05;;;;;;;;;;;6.50;99.90;;;;;;5048469;28;19912;-61
2024/03/19 07:40:30;;;;;;;;;;;6.60;99.90;;;;;;5032532;28;19909;-61
2024/03/19 07:42:56;;;;;;;;;;;6.60;99.90;;;;;;5040514;28;19916;-61
2024/03/19 07:45:21;;;;;;;;;;;6.80;99.90;;;;;;5034703;28;19932;-60
2024/03/19 07:47:48;;;;;;;;;;;6.80;99.90;;;;;;5035095;28;19918;-61
2024/03/19 07:50:18;;;;;;;;;;;6.90;99.90;;;;;;5038723;28;19924;-59
2024/03/19 07:52:44;;;;;;;;;;;6.90;99.90;;;;;;5037586;28;19905;-61
2024/03/19 07:55:10;;;;;;;;;;;6.90;99.90;;;;;;5040186;28;20003;-59
2024/03/19 07:57:38;;;;;;;;;;;7.10;99.90;;;;;;5032177;28;19996;-61
2024/03/19 08:00:14;;;;;;;;;;;7.00;99.90;;;;;;5039791;28;19944;-59
2024/03/19 08:02:40;;;;;;;;;;;7.00;99.90;;;;;;5045931;28;19912;-59
2024/03/19 08:05:07;;;;;;;;;;;7.10;99.90;;;;;;5035199;28;19915;-61
2024/03/19 08:07:34;;;;;;;;;;;7.20;99.90;;;;;;5043162;28;20197;-61
2024/03/19 08:09:59;;;;;;;;;;;7.40;99.90;;;;;;5051341;28;19917;-59
2024/03/19 08:12:25;;;;;;;;;;;7.50;99.90;;;;;;5051554;28;20205;-61
2024/03/19 08:14:51;;;;;;;;;;;7.80;99.90;;;;;;5035757;28;19983;-60
2024/03/19 08:17:18;;;;;;;;;;;8.10;99.90;;;;;;5042330;28;19916;-61
2024/03/19 08:19:43;;;;;;;;;;;8.30;99.90;;;;;;5042879;28;19912;-58
2024/03/19 08:22:09;;;;;;;;;;;8.50;99.90;;;;;;5033565;28;19913;-60
2024/03/19 08:24:37;;;;;;;;;;;8.40;99.90;;;;;;5036252;28;19909;-59
2024/03/19 08:27:03;;;;;;;;;;;8.30;99.90;;;;;;5034421;28;19936;-59
2024/03/19 08:29:29;;;;;;;;;;;8.30;99.90;;;;;;5039480;28;20385;-58
2024/03/19 08:31:54;;;;;;;;;;;8.50;99.90;;;;;;5039640;28;19913;-59
2024/03/19 08:34:20;;;;;;;;;;;8.60;99.90;;;;;;5034091;28;20281;-56
2024/03/19 08:36:45;;;;;;;;;;;8.80;99.90;;;;;;5036801;28;20215;-59
2024/03/19 08:39:11;;;;;;;;;;;8.90;99.90;;;;;;5040580;28;19913;-60
2024/03/19 08:41:36;;;;;;;;;;;9.00;99.90;;;;;;5046078;28;19963;-57
2024/03/19 08:44:02;;;;;;;;;;;9.20;99.90;;;;;;5039415;28;20307;-58
2024/03/19 08:46:27;;;;;;;;;;;9.40;99.90;;;;;;5030993;28;19970;-60
2024/03/19 08:48:53;;;;;;;;;;;9.60;99.90;;;;;;5037959;28;19952;-58
2024/03/19 08:51:19;;;;;;;;;;;9.50;99.90;;;;;;5048088;28;20298;-58
2024/03/19 08:53:45;;;;;;;;;;;9.70;99.90;;;;;;5021366;28;19999;-57
2024/03/19 08:56:13;;;;;;;;;;;10.00;99.90;;;;;;5040710;28;19987;-58
2024/03/19 08:58:39;;;;;;;;;;;10.00;99.90;;;;;;5045027;28;19913;-59
2024/03/19 09:01:05;;;;;;;;;;;10.10;99.90;;;;;;5039730;28;19927;-59
2024/03/19 09:03:33;;;;;;;;;;;10.20;99.90;;;;;;5032561;28;19948;-59
2024/03/19 09:06:00;;;;;;;;;;;10.50;99.90;;;;;;5050601;28;20003;-59
2024/03/19 09:08:26;;;;;;;;;;;10.90;99.90;;;;;;5041942;28;19911;-56
2024/03/19 09:10:55;;;;;;;;;;;11.10;99.90;;;;;;5042063;28;19908;-57
2024/03/19 09:13:21;;;;;;;;;;;10.70;99.90;;;;;;5042124;28;20116;-59
2024/03/19 09:15:46;;;;;;;;;;;10.70;99.90;;;;;;5050300;28;19913;-58
2024/03/19 09:18:12;;;;;;;;;;;10.90;99.90;;;;;;5048135;28;19915;-59
2024/03/19 09:20:38;;;;;;;;;;;11.00;99.90;;;;;;5043801;28;19908;-59
2024/03/19 09:23:04;;;;;;;;;;;11.20;99.90;;;;;;5033416;28;20016;-57
2024/03/19 09:25:29;;;;;;;;;;;11.40;99.90;;;;;;5029259;28;20011;-58
2024/03/19 09:27:55;;;;;;;;;;;11.30;99.90;;;;;;5046004;28;20342;-59
2024/03/19 09:30:20;;;;;;;;;;;11.70;99.90;;;;;;5032788;28;20446;-57
2024/03/19 09:32:46;;;;;;;;;;;11.90;99.90;;;;;;5042024;28;19916;-58
2024/03/19 09:35:13;;;;;;;;;;;12.10;99.90;;;;;;5033187;28;19913;-59
2024/03/19 09:37:41;;;;;;;;;;;12.20;99.90;;;;;;5036256;28;19909;-58
2024/03/19 09:40:10;;;;;;;;;;;12.00;99.90;;;;;;5029532;28;19912;-59
2024/03/19 09:42:36;;;;;;;;;;;11.70;99.90;;;;;;5035168;28;19915;-59
2024/03/19 09:45:03;;;;;;;;;;;11.70;99.90;;;;;;5041223;28;20042;-57
2024/03/19 09:47:36;;;;;;;;;;;11.90;99.90;;;;;;5066472;28;20406;-60
2024/03/19 09:50:02;;;;;;;;;;;12.40;99.90;;;;;;5049295;28;19921;-58
2024/03/19 09:52:28;;;;;;;;;;;12.80;99.90;;;;;;5046942;28;19939;-60
2024/03/19 09:54:56;;;;;;;;;;;13.10;99.90;;;;;;5049227;28;20373;-59
2024/03/19 09:57:22;;;;;;;;;;;13.40;99.90;;;;;;5034530;28;19913;-59
2024/03/19 09:59:48;;;;;;;;;;;13.50;99.90;;;;;;5032709;28;19921;-59
2024/03/19 10:02:14;;;;;;;;;;;13.40;99.90;;;;;;5038090;28;19917;-60
2024/03/19 10:04:45;;;;;;;;;;;13.70;99.90;;;;;;5032860;28;19967;-60
2024/03/19 10:07:11;;;;;;;;;;;13.40;99.90;;;;;;5034328;28;19948;-58
2024/03/19 10:09:37;;;;;;;;;;;14.00;99.90;;;;;;5030980;28;19924;-61
2024/03/19 10:12:02;;;;;;;;;;;14.50;99.90;;;;;;5037526;28;19917;-59
2024/03/19 10:14:31;;;;;;;;;;;15.00;99.90;;;;;;5038612;28;19921;-60
2024/03/19 10:16:57;;;;;;;;;;;15.00;99.90;;;;;;5045499;28;19913;-59
2024/03/19 10:19:22;;;;;;;;;;;15.50;99.90;;;;;;5025671;28;19972;-58
2024/03/19 10:21:48;;;;;;;;;;;15.80;99.90;;;;;;5026039;28;19917;-59
2024/03/19 10:24:14;;;;;;;;;;;15.60;99.90;;;;;;5025642;28;20301;-58
2024/03/19 10:26:40;;;;;;;;;;;15.90;99.90;;;;;;5034165;28;20337;-59
2024/03/19 10:29:07;;;;;;;;;;;15.90;99.90;;;;;;5041511;28;19909;-61
2024/03/19 10:31:32;;;;;;;;;;;15.60;99.90;;;;;;5039682;28;19966;-59
2024/03/19 10:33:59;;;;;;;;;;;15.30;99.90;;;;;;5025946;28;20004;-60
2024/03/19 10:36:27;;;;;;;;;;;15.00;99.90;;;;;;5025769;28;20052;-59
2024/03/19 10:38:53;;;;;;;;;;;14.90;99.90;;;;;;5025278;28;20288;-61
2024/03/19 10:41:18;;;;;;;;;;;15.20;99.90;;;;;;5033943;28;19935;-59
2024/03/19 10:43:45;;;;;;;;;;;14.70;99.90;;;;;;5034095;28;20432;-58
2024/03/19 10:46:11;;;;;;;;;;;14.90;99.90;;;;;;5034696;28;19917;-60
2024/03/19 10:48:37;;;;;;;;;;;15.00;99.90;;;;;;5056631;28;20034;-59
2024/03/19 10:51:02;;;;;;;;;;;15.00;99.90;;;;;;5048569;28;20379;-60
2024/03/19 10:53:29;;;;;;;;;;;14.90;99.90;;;;;;5045141;28;19917;-58
2024/03/19 10:55:57;;;;;;;;;;;14.70;99.90;;;;;;5053496;28;20000;-61
2024/03/19 10:58:23;;;;;;;;;;;14.50;99.90;;;;;;5043249;28;19913;-59
2024/03/19 11:00:48;;;;;;;;;;;14.70;99.90;;;;;;5038173;28;20372;-59
2024/03/19 11:03:15;;;;;;;;;;;14.70;99.90;;;;;;5035419;28;19917;-61
2024/03/19 11:05:44;;;;;;;;;;;14.40;99.90;;;;;;5037989;28;20515;-61
2024/03/19 11:08:10;;;;;;;;;;;14.40;99.90;;;;;;5040772;28;19916;-61
2024/03/19 11:10:36;;;;;;;;;;;14.40;99.90;;;;;;5038698;28;19913;-61
2024/03/19 11:13:04;;;;;;;;;;;14.40;99.90;;;;;;5031636;28;19943;-61
2024/03/19 11:15:30;;;;;;;;;;;14.70;99.90;;;;;;5035445;28;19909;-62
2024/03/19 11:17:56;;;;;;;;;;;14.90;99.90;;;;;;5035864;28;19917;-59
2024/03/19 11:20:27;;;;;;;;;;;15.30;99.90;;;;;;5042244;28;20249;-62
2024/03/19 11:22:52;;;;;;;;;;;15.80;99.90;;;;;;5036314;28;19913;-62
2024/03/19 11:25:20;;;;;;;;;;;16.10;99.90;;;;;;5031096;28;20502;-61
2024/03/19 11:27:51;;;;;;;;;;;15.80;99.90;;;;;;5031326;28;19919;-62
2024/03/19 11:30:18;;;;;;;;;;;16.00;99.90;;;;;;5038770;28;20381;-61
2024/03/19 11:32:44;;;;;;;;;;;16.20;99.90;;;;;;5031336;28;20297;-62
2024/03/19 11:35:36;;;;;;;;;;;16.60;99.90;;;;;;5047445;28;20364;-61
2024/03/19 11:38:01;;;;;;;;;;;16.90;99.90;;;;;;5033970;28;20381;-58
2024/03/19 11:40:28;;;;;;;;;;;17.00;99.90;;;;;;5039341;28;19951;-59
2024/03/19 11:42:53;;;;;;;;;;;17.20;99.90;;;;;;5031341;28;20012;-60
2024/03/19 11:45:19;;;;;;;;;;;17.40;99.90;;;;;;5032756;28;20075;-59
2024/03/19 11:47:44;;;;;;;;;;;17.70;99.90;;;;;;5036811;28;19913;-61
2024/03/19 11:50:19;;;;;;;;;;;17.90;99.90;;;;;;5038589;28;20234;-60
2024/03/19 11:52:48;;;;;;;;;;;18.20;99.90;;;;;;5030723;28;19909;-60
2024/03/19 11:55:16;;;;;;;;;;;18.10;99.90;;;;;;5014388;28;19921;-59
2024/03/19 11:57:42;;;;;;;;;;;18.10;99.90;;;;;;5037042;28;19917;-62
2024/03/19 12:00:11;;;;;;;;;;;18.00;99.90;;;;;;5038244;28;20254;-60
2024/03/19 12:02:37;;;;;;;;;;;18.00;99.90;;;;;;5030692;28;19917;-61
2024/03/19 12:05:03;;;;;;;;;;;18.00;99.90;;;;;;5038736;28;19920;-62
2024/03/19 12:07:29;;;;;;;;;;;18.00;99.90;;;;;;5038314;28;20336;-60
2024/03/19 12:09:55;;;;;;;;;;;18.20;99.90;;;;;;5036208;28;20476;-61
2024/03/19 12:12:21;;;;;;;;;;;18.40;99.90;;;;;;5039363;28;19951;-61
2024/03/19 12:14:47;;;;;;;;;;;18.50;99.90;;;;;;5030416;28;19931;-59
2024/03/19 12:17:13;;;;;;;;;;;18.50;99.90;;;;;;5031287;28;19917;-60
2024/03/19 12:19:38;;;;;;;;;;;18.60;99.90;;;;;;5044930;28;20393;-61
2024/03/19 12:22:04;;;;;;;;;;;18.60;99.90;;;;;;5046659;28;19966;-60
2024/03/19 12:24:29;;;;;;;;;;;18.50;99.90;;;;;;5041884;28;19912;-60
2024/03/19 12:26:55;;;;;;;;;;;18.60;99.90;;;;;;5034594;28;20031;-61
2024/03/19 12:29:21;;;;;;;;;;;18.70;99.90;;;;;;5029444;28;19913;-60
2024/03/19 12:32:04;;;;;;;;;;;18.70;99.90;;;;;;5038320;28;19917;-60
2024/03/19 12:37:11;;;;;;;;;;;18.60;99.90;;;;;;5040688;28;19924;-61
2024/03/19 12:39:37;;;;;;;;;;;18.70;99.90;;;;;;5037828;28;19913;-61
2024/03/19 12:42:03;;;;;;;;;;;18.60;99.90;;;;;;5030006;28;19979;-59
2024/03/19 12:44:29;;;;;;;;;;;18.80;99.90;;;;;;5033191;28;19913;-52
2024/03/19 12:46:55;;;;;;;;;;;19.00;99.90;;;;;;5033889;28;20008;-59
2024/03/19 12:49:24;;;;;;;;;;;19.20;99.90;;;;;;5031483;28;20020;-55
2024/03/19 12:51:53;;;;;;;;;;;19.30;99.90;;;;;;5042169;28;19913;-55
2024/03/19 12:54:19;;;;;;;;;;;19.20;99.90;;;;;;5037453;28;19924;-58
2024/03/19 12:56:44;;;;;;;;;;;18.80;99.90;;;;;;5029500;28;19913;-54
2024/03/19 12:59:10;;;;;;;;;;;18.80;99.90;;;;;;5028954;28;19909;-54
2024/03/19 13:01:35;;;;;;;;;;;18.40;99.90;;;;;;5029458;28;19917;-55
2024/03/19 13:04:01;;;;;;;;;;;18.00;99.90;;;;;;5029602;28;19917;-55
2024/03/19 13:06:26;;;;;;;;;;;17.70;99.90;;;;;;5037205;28;19925;-56
2024/03/19 13:08:52;;;;;;;;;;;18.00;99.90;;;;;;5028883;28;19913;-54
2024/03/19 13:11:19;;;;;;;;;;;18.10;99.90;;;;;;5045719;28;19931;-57
2024/03/19 13:13:44;;;;;;;;;;;18.50;99.90;;;;;;5029204;28;20473;-56
2024/03/19 13:16:10;;;;;;;;;;;18.60;99.90;;;;;;5029825;28;19992;-59
2024/03/19 13:18:36;;;;;;;;;;;18.60;99.90;;;;;;5029390;28;19971;-58
2024/03/19 13:21:01;;;;;;;;;;;18.60;99.90;;;;;;5030222;28;20012;-59
2024/03/19 13:23:27;;;;;;;;;;;18.50;99.90;;;;;;5033156;28;19921;-58
2024/03/19 13:25:52;;;;;;;;;;;18.50;99.90;;;;;;5041218;28;19974;-58
2024/03/19 13:28:18;;;;;;;;;;;18.80;99.90;;;;;;5038652;28;19963;-58
2024/03/19 13:30:43;;;;;;;;;;;18.90;99.90;;;;;;5029700;28;20350;-59
2024/03/19 13:33:09;;;;;;;;;;;18.80;99.90;;;;;;5038416;28;19913;-60
2024/03/19 13:35:34;;;;;;;;;;;18.70;99.90;;;;;;5041088;28;19920;-59
2024/03/19 13:38:00;;;;;;;;;;;18.60;99.90;;;;;;5033505;28;19913;-59
2024/03/19 13:40:25;;;;;;;;;;;18.80;99.90;;;;;;5029115;28;19925;-59
2024/03/19 13:42:51;;;;;;;;;;;18.70;99.90;;;;;;5029210;28;20291;-58
2024/03/19 13:45:16;;;;;;;;;;;18.60;99.90;;;;;;5030204;28;19921;-58
2024/03/19 13:47:42;;;;;;;;;;;18.60;99.90;;;;;;5040833;28;19917;-59
2024/03/19 13:50:09;;;;;;;;;;;18.60;99.90;;;;;;5039649;28;19916;-59
2024/03/19 13:52:35;;;;;;;;;;;18.70;99.90;;;;;;5029242;28;19910;-61
2024/03/19 13:55:01;;;;;;;;;;;18.80;99.90;;;;;;5037140;28;19913;-55
2024/03/19 13:57:27;;;;;;;;;;;19.00;99.90;;;;;;5040154;28;19967;-58
2024/03/19 13:59:53;;;;;;;;;;;18.80;99.90;;;;;;5033406;28;20196;-59
2024/03/19 14:02:19;;;;;;;;;;;18.60;99.90;;;;;;5030716;28;19957;-58
2024/03/19 14:04:45;;;;;;;;;;;18.70;99.90;;;;;;5043223;28;19928;-59
2024/03/19 14:07:12;;;;;;;;;;;18.40;99.90;;;;;;5028964;28;20292;-58
2024/03/19 14:09:38;;;;;;;;;;;18.30;99.90;;;;;;5028609;28;19913;-57
2024/03/19 14:12:03;;;;;;;;;;;18.50;99.90;;;;;;5036771;28;20011;-56
2024/03/19 14:14:33;;;;;;;;;;;18.50;99.90;;;;;;5028689;28;20035;-58
2024/03/19 14:16:59;;;;;;;;;;;18.60;99.90;;;;;;5036241;28;19919;-58
2024/03/19 14:19:24;;;;;;;;;;;18.50;99.90;;;;;;5032021;28;19917;-60
2024/03/19 14:21:50;;;;;;;;;;;18.40;99.90;;;;;;5034564;28;19971;-57